sensor_id;sensor_type;location;lat;lon;timestamp;temperature;humidity
6538;DHT22;3302;52.508;13.454;2024-03-23T00:55:41;8.20;99.90
6538;DHT22;3302;52.508;13.454;2024-03-23T00:58:08;8.10;99.90
6538;DHT22;3302;52.508;13.454;2024-03-23T01:00:33;8.20;99.90
6538;DHT22;3302;52.508;13.454;2024-03-23T01:02:59;8.10;99.90
6538;DHT22;3302;52.508;13.454;2024-03-23T01:05:25;8.20;99.90
6538;DHT22;3302;52.508;13.454;2024-03-23T01:07:51;8.20;99.90
6538;DHT22;3302;52.508;13.454;2024-03-23T01:10:16;8.20;99.90
6538;DHT22;3302;52.508;13.454;2024-03-23T01:12:42;8.20;99.90
6538;DHT22;3302;52.508;13.454;2024-03-23T01:15:08;8.10;99.90
6538;DHT22;3302;52.508;13.454;2024-03-23T01:17:34;8.10;99.90
6538;DHT22;3302;52.508;13.454;2024-03-23T01:20:00;8.20;99.90
6538;DHT22;3302;52.508;13.454;2024-03-23T01:22:26;8.20;99.90
6538;DHT22;3302;52.508;13.454;2024-03-23T01:24:52;8.20;99.90
6538;DHT22;3302;52.508;13.454;2024-03-23T01:27:17;8.10;99.90
6538;DHT22;3302;52.508;13.454;2024-03-23T01:29:43;8.10;99.90
6538;DHT22;3302;52.508;13.454;2024-03-23T01:32:09;8.20;99.90
6538;DHT22;3302;52.508;13.454;2024-03-23T01:34:35;8.20;99.90
6538;DHT22;3302;52.508;13.454;2024-03-23T01:37:01;8.20;99.90
6538;DHT22;3302;52.508;13.454;2024-03-23T01:39:27;8.20;99.90
6538;DHT22;3302;52.508;13.454;2024-03-23T01:41:53;8.30;99.90
6538;DHT22;3302;52.508;13.454;2024-03-23T01:44:19;8.30;99.90
6538;DHT22;3302;52.508;13.454;2024-03-23T01:46:44;8.30;99.90
6538;DHT22;3302;52.508;13.454;2024-03-23T01:49:10;8.30;99.90
6538;DHT22;3302;52.508;13.454;2024-03-23T01:51:37;8.30;99.90
6538;DHT22;3302;52.508;13.454;2024-03-23T01:54:04;8.40;99.90
6538;DHT22;3302;52.508;13.454;2024-03-23T01:56:31;8.30;99.90
6538;DHT22;3302;52.508;13.454;2024-03-23T01:58:58;8.10;99.90
6538;DHT22;3302;52.508;13.454;2024-03-23T02:01:24;8.10;99.90
6538;DHT22;3302;52.508;13.454;2024-03-23T02:03:50;8.00;99.90
6538;DHT22;3302;52.508;13.454;2024-03-23T02:06:16;8.00;99.90
6538;DHT22;3302;52.508;13.454;2024-03-23T02:08:43;8.10;99.90
6538;DHT22;3302;52.508;13.454;2024-03-23T02:11:09;8.10;99.90
6538;DHT22;3302;52.508;13.454;2024-03-23T02:13:35;8.10;99.90
6538;DHT22;3302;52.508;13.454;2024-03-23T02:16:01;8.10;99.90
6538;DHT22;3302;52.508;13.454;2024-03-23T02:18:27;8.10;99.90
6538;DHT22;3302;52.508;13.454;2024-03-23T02:20:53;8.10;99.90
6538;DHT22;3302;52.508;13.454;2024-03-23T02:23:18;8.10;99.90
6538;DHT22;3302;52.508;13.454;2024-03-23T02:25:44;8.00;99.90
6538;DHT22;3302;52.508;13.454;2024-03-23T02:28:10;8.10;99.90
6538;DHT22;3302;52.508;13.454;2024-03-23T02:30:37;8.20;99.90
6538;DHT22;3302;52.508;13.454;2024-03-23T02:33:03;8.10;99.90
6538;DHT22;3302;52.508;13.454;2024-03-23T02:35:29;8.10;99.90
6538;DHT22;3302;52.508;13.454;2024-03-23T02:37:55;8.20;99.90
6538;DHT22;3302;52.508;13.454;2024-03-23T02:40:25;8.20;99.90
6538;DHT22;3302;52.508;13.454;2024-03-23T02:42:52;8.10;99.90
6538;DHT22;3302;52.508;13.454;2024-03-23T02:45:18;8.20;99.90
6538;DHT22;3302;52.508;13.454;2024-03-23T02:47:44;8.20;99.90
6538;DHT22;3302;52.508;13.454;2024-03-23T02:50:09;8.10;99.90
6538;DHT22;3302;52.508;13.454;2024-03-23T02:52:36;8.10;99.90
6538;DHT22;3302;52.508;13.454;2024-03-23T02:55:03;8.20;99.90
6538;DHT22;3302;52.508;13.454;2024-03-23T02:57:29;8.10;99.90
6538;DHT22;3302;52.508;13.454;2024-03-23T02:59:55;8.20;99.90
6538;DHT22;3302;52.508;13.454;2024-03-23T03:02:20;8.00;99.90
6538;DHT22;3302;52.508;13.454;2024-03-23T03:04:47;8.10;99.90
6538;DHT22;3302;52.508;13.454;2024-03-23T03:07:13;8.20;99.90
6538;DHT22;3302;52.508;13.454;2024-03-23T03:09:39;8.10;99.90
6538;DHT22;3302;52.508;13.454;2024-03-23T03:12:08;8.10;99.90
6538;DHT22;3302;52.508;13.454;2024-03-23T03:14:34;8.10;99.90
6538;DHT22;3302;52.508;13.454;2024-03-23T03:17:00;8.10;99.90
6538;DHT22;3302;52.508;13.454;2024-03-23T03:19:26;7.90;99.90
6538;DHT22;3302;52.508;13.454;2024-03-23T03:21:52;8.00;99.90
6538;DHT22;3302;52.508;13.454;2024-03-23T03:24:18;8.00;99.90
6538;DHT22;3302;52.508;13.454;2024-03-23T03:26:44;8.00;99.90
6538;DHT22;3302;52.508;13.454;2024-03-23T03:29:10;8.00;99.90
6538;DHT22;3302;52.508;13.454;2024-03-23T03:31:38;7.90;99.90
6538;DHT22;3302;52.508;13.454;2024-03-23T03:34:04;7.90;99.90
6538;DHT22;3302;52.508;13.454;2024-03-23T03:36:30;7.90;99.90
6538;DHT22;3302;52.508;13.454;2024-03-23T03:38:56;7.90;99.90
6538;DHT22;3302;52.508;13.454;2024-03-23T03:41:21;7.90;99.90
6538;DHT22;3302;52.508;13.454;2024-03-23T03:43:47;7.70;99.90
6538;DHT22;3302;52.508;13.454;2024-03-23T03:46:13;7.60;99.90
6538;DHT22;3302;52.508;13.454;2024-03-23T03:48:39;7.60;99.90
6538;DHT22;3302;52.508;13.454;2024-03-23T03:51:05;7.70;99.90
6538;DHT22;3302;52.508;13.454;2024-03-23T03:53:31;7.80;99.90
6538;DHT22;3302;52.508;13.454;2024-03-23T03:56:00;7.50;99.90
6538;DHT22;3302;52.508;13.454;2024-03-23T03:58:26;7.60;99.90
6538;DHT22;3302;52.508;13.454;2024-03-23T04:00:52;7.50;99.90
6538;DHT22;3302;52.508;13.454;2024-03-23T04:03:18;7.50;99.90
6538;DHT22;3302;52.508;13.454;2024-03-23T04:05:52;7.50;99.90
6538;DHT22;3302;52.508;13.454;2024-03-23T04:08:19;7.40;99.90
6538;DHT22;3302;52.508;13.454;2024-03-23T04:10:45;7.50;99.90
6538;DHT22;3302;52.508;13.454;2024-03-23T04:13:12;7.60;99.90
6538;DHT22;3302;52.508;13.454;2024-03-23T04:15:38;7.40;99.90
6538;DHT22;3302;52.508;13.454;2024-03-23T04:18:04;7.40;99.90
6538;DHT22;3302;52.508;13.454;2024-03-23T04:20:29;7.40;99.90
6538;DHT22;3302;52.508;13.454;2024-03-23T04:22:55;7.10;99.90
6538;DHT22;3302;52.508;13.454;2024-03-23T04:25:21;7.20;99.90
6538;DHT22;3302;52.508;13.454;2024-03-23T04:27:47;7.00;99.90
6538;DHT22;3302;52.508;13.454;2024-03-23T04:30:13;6.90;99.90
6538;DHT22;3302;52.508;13.454;2024-03-23T04:32:38;7.10;99.90
6538;DHT22;3302;52.508;13.454;2024-03-23T04:35:04;7.10;99.90
6538;DHT22;3302;52.508;13.454;2024-03-23T04:37:35;7.10;99.90
6538;DHT22;3302;52.508;13.454;2024-03-23T04:40:03;7.00;99.90
6538;DHT22;3302;52.508;13.454;2024-03-23T04:42:29;7.00;99.90
6538;DHT22;3302;52.508;13.454;2024-03-23T04:44:55;7.00;99.90
6538;DHT22;3302;52.508;13.454;2024-03-23T04:47:21;6.90;99.90
6538;DHT22;3302;52.508;13.454;2024-03-23T04:49:46;6.80;99.90
6538;DHT22;3302;52.508;13.454;2024-03-23T04:52:12;6.70;99.90
6538;DHT22;3302;52.508;13.454;2024-03-23T04:54:38;6.80;99.90
6538;DHT22;3302;52.508;13.454;2024-03-23T04:57:06;6.70;99.90
6538;DHT22;3302;52.508;13.454;2024-03-23T04:59:32;6.90;99.90
6538;DHT22;3302;52.508;13.454;2024-03-23T05:01:59;6.90;99.90
6538;DHT22;3302;52.508;13.454;2024-03-23T05:04:25;6.90;99.90
6538;DHT22;3302;52.508;13.454;2024-03-23T05:06:51;6.80;99.90
6538;DHT22;3302;52.508;13.454;2024-03-23T05:09:17;6.80;99.90
6538;DHT22;3302;52.508;13.454;2024-03-23T05:11:42;6.80;99.90
6538;DHT22;3302;52.508;13.454;2024-03-23T05:14:08;6.80;99.90
6538;DHT22;3302;52.508;13.454;2024-03-23T05:16:34;6.70;99.90
6538;DHT22;3302;52.508;13.454;2024-03-23T05:19:00;6.60;99.90
6538;DHT22;3302;52.508;13.454;2024-03-23T05:21:27;6.50;99.90
6538;DHT22;3302;52.508;13.454;2024-03-23T05:23:54;6.70;99.90
6538;DHT22;3302;52.508;13.454;2024-03-23T05:26:21;6.70;99.90
6538;DHT22;3302;52.508;13.454;2024-03-23T05:28:47;6.70;99.90
6538;DHT22;3302;52.508;13.454;2024-03-23T05:31:23;6.70;99.90
6538;DHT22;3302;52.508;13.454;2024-03-23T05:33:48;6.60;99.90
6538;DHT22;3302;52.508;13.454;2024-03-23T05:36:14;6.70;99.90
6538;DHT22;3302;52.508;13.454;2024-03-23T05:38:40;6.60;99.90
6538;DHT22;3302;52.508;13.454;2024-03-23T05:41:06;6.60;99.90
6538;DHT22;3302;52.508;13.454;2024-03-23T05:43:32;6.60;99.90
6538;DHT22;3302;52.508;13.454;2024-03-23T05:45:59;6.60;99.90
6538;DHT22;3302;52.508;13.454;2024-03-23T05:48:26;6.60;99.90
6538;DHT22;3302;52.508;13.454;2024-03-23T05:50:53;6.60;99.90
6538;DHT22;3302;52.508;13.454;2024-03-23T05:53:19;6.80;99.90
6538;DHT22;3302;52.508;13.454;2024-03-23T05:55:49;6.60;99.90
6538;DHT22;3302;52.508;13.454;2024-03-23T05:58:16;6.70;99.90
6538;DHT22;3302;52.508;13.454;2024-03-23T06:00:43;6.60;99.90
6538;DHT22;3302;52.508;13.454;2024-03-23T06:03:09;6.60;99.90
6538;DHT22;3302;52.508;13.454;2024-03-23T06:05:36;6.60;99.90
6538;DHT22;3302;52.508;13.454;2024-03-23T06:08:03;6.70;99.90
6538;DHT22;3302;52.508;13.454;2024-03-23T06:10:29;6.70;99.90
6538;DHT22;3302;52.508;13.454;2024-03-23T06:12:55;6.70;99.90
6538;DHT22;3302;52.508;13.454;2024-03-23T06:15:21;6.70;99.90
6538;DHT22;3302;52.508;13.454;2024-03-23T06:17:48;6.80;99.90
6538;DHT22;3302;52.508;13.454;2024-03-23T06:20:14;6.90;99.90
6538;DHT22;3302;52.508;13.454;2024-03-23T06:22:40;6.80;99.90
6538;DHT22;3302;52.508;13.454;2024-03-23T06:25:06;6.80;99.90
6538;DHT22;3302;52.508;13.454;2024-03-23T06:27:33;6.60;99.90
6538;DHT22;3302;52.508;13.454;2024-03-23T06:29:59;6.60;99.90
6538;DHT22;3302;52.508;13.454;2024-03-23T06:32:25;6.80;99.90
6538;DHT22;3302;52.508;13.454;2024-03-23T06:34:51;6.70;99.90
6538;DHT22;3302;52.508;13.454;2024-03-23T06:37:17;6.60;99.90
6538;DHT22;3302;52.508;13.454;2024-03-23T06:39:43;6.70;99.90
6538;DHT22;3302;52.508;13.454;2024-03-23T06:42:08;6.60;99.90
6538;DHT22;3302;52.508;13.454;2024-03-23T06:44:34;6.60;99.90
6538;DHT22;3302;52.508;13.454;2024-03-23T06:47:00;6.60;99.90
6538;DHT22;3302;52.508;13.454;2024-03-23T06:49:26;6.70;99.90
6538;DHT22;3302;52.508;13.454;2024-03-23T06:51:51;6.60;99.90
6538;DHT22;3302;52.508;13.454;2024-03-23T06:54:20;6.60;99.90
6538;DHT22;3302;52.508;13.454;2024-03-23T06:56:46;6.50;99.90
6538;DHT22;3302;52.508;13.454;2024-03-23T06:59:12;6.60;99.90
6538;DHT22;3302;52.508;13.454;2024-03-23T07:01:38;6.50;99.90
6538;DHT22;3302;52.508;13.454;2024-03-23T07:04:04;6.60;99.90
6538;DHT22;3302;52.508;13.454;2024-03-23T07:06:31;6.70;99.90
6538;DHT22;3302;52.508;13.454;2024-03-23T07:08:56;6.70;99.90
6538;DHT22;3302;52.508;13.454;2024-03-23T07:11:23;6.80;99.90
6538;DHT22;3302;52.508;13.454;2024-03-23T07:13:53;6.90;99.90
6538;DHT22;3302;52.508;13.454;2024-03-23T07:16:21;6.90;99.90
6538;DHT22;3302;52.508;13.454;2024-03-23T07:18:47;6.80;99.90
6538;DHT22;3302;52.508;13.454;2024-03-23T07:21:14;6.80;99.90
6538;DHT22;3302;52.508;13.454;2024-03-23T07:23:42;6.90;99.90
6538;DHT22;3302;52.508;13.454;2024-03-23T07:26:11;6.80;99.90
6538;DHT22;3302;52.508;13.454;2024-03-23T07:28:37;6.80;99.90
6538;DHT22;3302;52.508;13.454;2024-03-23T07:31:11;7.00;99.90
6538;DHT22;3302;52.508;13.454;2024-03-23T07:33:41;6.80;99.90
6538;DHT22;3302;52.508;13.454;2024-03-23T07:36:07;6.80;99.90
6538;DHT22;3302;52.508;13.454;2024-03-23T07:38:33;6.80;99.90
6538;DHT22;3302;52.508;13.454;2024-03-23T07:41:14;6.80;99.90
6538;DHT22;3302;52.508;13.454;2024-03-23T07:43:40;6.80;99.90
6538;DHT22;3302;52.508;13.454;2024-03-23T07:46:06;6.90;99.90
6538;DHT22;3302;52.508;13.454;2024-03-23T07:48:32;6.80;99.90
6538;DHT22;3302;52.508;13.454;2024-03-23T07:51:02;6.90;99.90
6538;DHT22;3302;52.508;13.454;2024-03-23T07:53:29;6.80;99.90
6538;DHT22;3302;52.508;13.454;2024-03-23T07:56:00;6.80;99.90
6538;DHT22;3302;52.508;13.454;2024-03-23T07:58:26;6.90;99.90
6538;DHT22;3302;52.508;13.454;2024-03-23T08:00:56;6.80;99.90
6538;DHT22;3302;52.508;13.454;2024-03-23T08:03:22;6.70;99.90
6538;DHT22;3302;52.508;13.454;2024-03-23T08:05:49;6.70;99.90
6538;DHT22;3302;52.508;13.454;2024-03-23T08:08:15;6.70;99.90
6538;DHT22;3302;52.508;13.454;2024-03-23T08:10:51;6.70;99.90
6538;DHT22;3302;52.508;13.454;2024-03-23T08:13:17;6.70;99.90
6538;DHT22;3302;52.508;13.454;2024-03-23T08:15:43;6.70;99.90
6538;DHT22;3302;52.508;13.454;2024-03-23T08:18:11;6.70;99.90
6538;DHT22;3302;52.508;13.454;2024-03-23T08:20:37;6.60;99.90
6538;DHT22;3302;52.508;13.454;2024-03-23T08:23:04;6.50;99.90
6538;DHT22;3302;52.508;13.454;2024-03-23T08:25:34;6.20;99.90
6538;DHT22;3302;52.508;13.454;2024-03-23T08:27:59;6.10;99.90
6538;DHT22;3302;52.508;13.454;2024-03-23T08:30:26;6.10;99.90
6538;DHT22;3302;52.508;13.454;2024-03-23T08:32:52;6.20;99.90
6538;DHT22;3302;52.508;13.454;2024-03-23T08:35:18;6.20;99.90
6538;DHT22;3302;52.508;13.454;2024-03-23T08:37:43;6.20;99.90
6538;DHT22;3302;52.508;13.454;2024-03-23T08:40:10;6.00;99.90
6538;DHT22;3302;52.508;13.454;2024-03-23T08:42:35;6.00;99.90
6538;DHT22;3302;52.508;13.454;2024-03-23T08:45:02;6.00;99.90
6538;DHT22;3302;52.508;13.454;2024-03-23T08:47:28;5.90;99.90
6538;DHT22;3302;52.508;13.454;2024-03-23T08:49:54;5.80;99.90
6538;DHT22;3302;52.508;13.454;2024-03-23T08:52:20;5.70;99.90
6538;DHT22;3302;52.508;13.454;2024-03-23T08:54:48;5.50;99.90
6538;DHT22;3302;52.508;13.454;2024-03-23T08:57:14;5.40;99.90
6538;DHT22;3302;52.508;13.454;2024-03-23T08:59:40;5.30;99.90
6538;DHT22;3302;52.508;13.454;2024-03-23T09:02:05;5.10;99.90
6538;DHT22;3302;52.508;13.454;2024-03-23T09:04:31;5.00;99.90
6538;DHT22;3302;52.508;13.454;2024-03-23T09:06:57;5.00;99.90
6538;DHT22;3302;52.508;13.454;2024-03-23T09:09:25;5.00;99.90
6538;DHT22;3302;52.508;13.454;2024-03-23T09:11:51;4.90;99.90
6538;DHT22;3302;52.508;13.454;2024-03-23T09:14:17;4.90;99.90
6538;DHT22;3302;52.508;13.454;2024-03-23T09:16:42;5.00;99.90
6538;DHT22;3302;52.508;13.454;2024-03-23T09:19:08;4.90;99.90
6538;DHT22;3302;52.508;13.454;2024-03-23T09:21:34;4.70;99.90
6538;DHT22;3302;52.508;13.454;2024-03-23T09:24:00;4.80;99.90
6538;DHT22;3302;52.508;13.454;2024-03-23T09:26:25;4.80;99.90
6538;DHT22;3302;52.508;13.454;2024-03-23T09:28:51;4.70;99.90
6538;DHT22;3302;52.508;13.454;2024-03-23T09:31:17;4.60;99.90
6538;DHT22;3302;52.508;13.454;2024-03-23T09:33:43;4.60;99.90
6538;DHT22;3302;52.508;13.454;2024-03-23T09:36:09;4.40;99.90
6538;DHT22;3302;52.508;13.454;2024-03-23T09:38:35;4.40;99.90
6538;DHT22;3302;52.508;13.454;2024-03-23T09:41:07;4.50;99.90
6538;DHT22;3302;52.508;13.454;2024-03-23T09:43:33;4.50;99.90
6538;DHT22;3302;52.508;13.454;2024-03-23T09:45:59;4.40;99.90
6538;DHT22;3302;52.508;13.454;2024-03-23T09:48:25;4.30;99.90
6538;DHT22;3302;52.508;13.454;2024-03-23T09:50:51;4.20;99.90
6538;DHT22;3302;52.508;13.454;2024-03-23T09:53:17;4.10;99.90
6538;DHT22;3302;52.508;13.454;2024-03-23T09:55:44;4.10;99.90
6538;DHT22;3302;52.508;13.454;2024-03-23T09:58:15;4.00;99.90
6538;DHT22;3302;52.508;13.454;2024-03-23T10:00:41;4.00;99.90
6538;DHT22;3302;52.508;13.454;2024-03-23T10:03:06;3.90;99.90
6538;DHT22;3302;52.508;13.454;2024-03-23T10:05:33;3.80;99.90
6538;DHT22;3302;52.508;13.454;2024-03-23T10:10:43;4.00;99.90
6538;DHT22;3302;52.508;13.454;2024-03-23T10:13:08;4.00;99.90
6538;DHT22;3302;52.508;13.454;2024-03-23T10:15:35;4.10;99.90
6538;DHT22;3302;52.508;13.454;2024-03-23T10:18:20;4.20;99.90
6538;DHT22;3302;52.508;13.454;2024-03-23T10:23:43;4.00;99.90
6538;DHT22;3302;52.508;13.454;2024-03-23T10:26:16;3.90;99.90
6538;DHT22;3302;52.508;13.454;2024-03-23T10:31:17;3.90;99.90
6538;DHT22;3302;52.508;13.454;2024-03-23T10:33:47;3.80;99.90
6538;DHT22;3302;52.508;13.454;2024-03-23T10:36:13;3.70;99.90
6538;DHT22;3302;52.508;13.454;2024-03-23T10:38:44;3.80;99.90
6538;DHT22;3302;52.508;13.454;2024-03-23T10:41:10;3.90;99.90
6538;DHT22;3302;52.508;13.454;2024-03-23T10:43:37;4.00;99.90
6538;DHT22;3302;52.508;13.454;2024-03-23T10:46:04;4.00;99.90
6538;DHT22;3302;52.508;13.454;2024-03-23T10:48:30;3.80;99.90
6538;DHT22;3302;52.508;13.454;2024-03-23T10:50:56;3.70;99.90
6538;DHT22;3302;52.508;13.454;2024-03-23T10:53:26;3.80;99.90
6538;DHT22;3302;52.508;13.454;2024-03-23T10:55:52;3.90;99.90
6538;DHT22;3302;52.508;13.454;2024-03-23T10:58:26;3.90;99.90
6538;DHT22;3302;52.508;13.454;2024-03-23T11:00:53;4.00;99.90
6538;DHT22;3302;52.508;13.454;2024-03-23T11:03:36;3.90;99.90
6538;DHT22;3302;52.508;13.454;2024-03-23T11:06:06;3.80;99.90
6538;DHT22;3302;52.508;13.454;2024-03-23T11:08:38;4.00;99.90
6538;DHT22;3302;52.508;13.454;2024-03-23T11:13:48;4.00;99.90
6538;DHT22;3302;52.508;13.454;2024-03-23T11:16:24;4.10;99.90
6538;DHT22;3302;52.508;13.454;2024-03-23T11:18:51;4.10;99.90
6538;DHT22;3302;52.508;13.454;2024-03-23T11:21:54;4.20;99.90
6538;DHT22;3302;52.508;13.454;2024-03-23T11:24:21;4.20;99.90
6538;DHT22;3302;52.508;13.454;2024-03-23T11:26:48;4.20;99.90
6538;DHT22;3302;52.508;13.454;2024-03-23T11:29:15;4.20;99.90
6538;DHT22;3302;52.508;13.454;2024-03-23T11:31:51;4.20;99.90
6538;DHT22;3302;52.508;13.454;2024-03-23T11:34:21;4.10;99.90
6538;DHT22;3302;52.508;13.454;2024-03-23T11:36:48;3.90;99.90
6538;DHT22;3302;52.508;13.454;2024-03-23T11:39:20;4.00;99.90
6538;DHT22;3302;52.508;13.454;2024-03-23T11:44:25;4.20;99.90
6538;DHT22;3302;52.508;13.454;2024-03-23T11:46:51;4.30;99.90
6538;DHT22;3302;52.508;13.454;2024-03-23T11:49:28;4.30;99.90
6538;DHT22;3302;52.508;13.454;2024-03-23T11:51:56;4.40;99.90
6538;DHT22;3302;52.508;13.454;2024-03-23T11:54:26;4.30;99.90
6538;DHT22;3302;52.508;13.454;2024-03-23T11:57:00;4.30;99.90
6538;DHT22;3302;52.508;13.454;2024-03-23T11:59:37;4.30;99.90
6538;DHT22;3302;52.508;13.454;2024-03-23T12:02:11;4.50;99.90
6538;DHT22;3302;52.508;13.454;2024-03-23T12:04:38;4.40;99.90
6538;DHT22;3302;52.508;13.454;2024-03-23T12:09:40;4.40;99.90
6538;DHT22;3302;52.508;13.454;2024-03-23T12:12:14;4.40;99.90
6538;DHT22;3302;52.508;13.454;2024-03-23T12:14:44;4.30;99.90
6538;DHT22;3302;52.508;13.454;2024-03-23T12:17:14;4.30;99.90
6538;DHT22;3302;52.508;13.454;2024-03-23T12:19:41;4.40;99.90
6538;DHT22;3302;52.508;13.454;2024-03-23T12:22:08;4.50;99.90
6538;DHT22;3302;52.508;13.454;2024-03-23T12:24:34;4.40;99.90
6538;DHT22;3302;52.508;13.454;2024-03-23T12:27:04;4.40;99.90
6538;DHT22;3302;52.508;13.454;2024-03-23T12:29:31;4.50;99.90
6538;DHT22;3302;52.508;13.454;2024-03-23T12:32:02;4.50;99.90
6538;DHT22;3302;52.508;13.454;2024-03-23T12:34:28;4.60;99.90
6538;DHT22;3302;52.508;13.454;2024-03-23T12:36:56;4.60;99.90
6538;DHT22;3302;52.508;13.454;2024-03-23T12:39:22;4.70;99.90
6538;DHT22;3302;52.508;13.454;2024-03-23T12:41:49;4.90;99.90
6538;DHT22;3302;52.508;13.454;2024-03-23T12:44:15;4.90;99.90
6538;DHT22;3302;52.508;13.454;2024-03-23T12:46:41;5.00;99.90
6538;DHT22;3302;52.508;13.454;2024-03-23T12:49:07;4.90;99.90
6538;DHT22;3302;52.508;13.454;2024-03-23T12:54:05;4.90;99.90
6538;DHT22;3302;52.508;13.454;2024-03-23T12:56:31;4.90;99.90
6538;DHT22;3302;52.508;13.454;2024-03-23T12:58:57;4.80;99.90
6538;DHT22;3302;52.508;13.454;2024-03-23T13:01:23;4.60;99.90
6538;DHT22;3302;52.508;13.454;2024-03-23T13:03:50;4.70;99.90
6538;DHT22;3302;52.508;13.454;2024-03-23T13:06:16;4.70;99.90
6538;DHT22;3302;52.508;13.454;2024-03-23T13:08:44;4.80;99.90
6538;DHT22;3302;52.508;13.454;2024-03-23T13:11:10;4.70;99.90
6538;DHT22;3302;52.508;13.454;2024-03-23T13:13:37;4.60;99.90
6538;DHT22;3302;52.508;13.454;2024-03-23T13:16:04;4.70;99.90
6538;DHT22;3302;52.508;13.454;2024-03-23T13:18:31;4.60;99.90
6538;DHT22;3302;52.508;13.454;2024-03-23T13:20:58;4.70;99.90
6538;DHT22;3302;52.508;13.454;2024-03-23T13:23:24;4.80;99.90
6538;DHT22;3302;52.508;13.454;2024-03-23T13:25:54;4.90;99.90
6538;DHT22;3302;52.508;13.454;2024-03-23T13:28:20;4.80;99.90
6538;DHT22;3302;52.508;13.454;2024-03-23T13:30:55;4.90;99.90
6538;DHT22;3302;52.508;13.454;2024-03-23T13:33:22;5.10;99.90
6538;DHT22;3302;52.508;13.454;2024-03-23T13:38:16;5.30;99.90
6538;DHT22;3302;52.508;13.454;2024-03-23T13:43:17;5.40;99.90
6538;DHT22;3302;52.508;13.454;2024-03-23T13:45:43;5.50;99.90
6538;DHT22;3302;52.508;13.454;2024-03-23T13:48:08;5.60;99.90
6538;DHT22;3302;52.508;13.454;2024-03-23T13:50:34;5.70;99.90
6538;DHT22;3302;52.508;13.454;2024-03-23T13:53:00;5.70;99.90
6538;DHT22;3302;52.508;13.454;2024-03-23T13:55:26;5.90;99.90
6538;DHT22;3302;52.508;13.454;2024-03-23T13:57:52;6.10;99.90
6538;DHT22;3302;52.508;13.454;2024-03-23T14:00:18;6.30;99.90
6538;DHT22;3302;52.508;13.454;2024-03-23T14:02:44;6.20;99.90
6538;DHT22;3302;52.508;13.454;2024-03-23T14:05:10;6.50;99.90
6538;DHT22;3302;52.508;13.454;2024-03-23T14:07:37;6.40;99.90
6538;DHT22;3302;52.508;13.454;2024-03-23T14:10:06;6.40;99.90
6538;DHT22;3302;52.508;13.454;2024-03-23T14:12:32;6.30;99.90
6538;DHT22;3302;52.508;13.454;2024-03-23T14:14:58;6.40;99.90
6538;DHT22;3302;52.508;13.454;2024-03-23T14:17:24;6.60;99.90
6538;DHT22;3302;52.508;13.454;2024-03-23T14:19:51;6.80;99.90
6538;DHT22;3302;52.508;13.454;2024-03-23T14:22:17;6.60;99.90
6538;DHT22;3302;52.508;13.454;2024-03-23T14:24:45;6.70;99.90
6538;DHT22;3302;52.508;13.454;2024-03-23T14:27:11;6.60;99.90
6538;DHT22;3302;52.508;13.454;2024-03-23T14:29:36;6.60;99.90
6538;DHT22;3302;52.508;13.454;2024-03-23T14:32:02;6.50;99.90
6538;DHT22;3302;52.508;13.454;2024-03-23T14:34:28;6.50;99.90
6538;DHT22;3302;52.508;13.454;2024-03-23T14:36:54;6.30;99.90
6538;DHT22;3302;52.508;13.454;2024-03-23T14:39:23;6.40;99.90
6538;DHT22;3302;52.508;13.454;2024-03-23T14:41:52;6.30;99.90
6538;DHT22;3302;52.508;13.454;2024-03-23T14:44:18;6.50;99.90
6538;DHT22;3302;52.508;13.454;2024-03-23T14:46:44;6.30;99.90
6538;DHT22;3302;52.508;13.454;2024-03-23T14:49:14;6.30;99.90
6538;DHT22;3302;52.508;13.454;2024-03-23T14:51:42;6.30;99.90
6538;DHT22;3302;52.508;13.454;2024-03-23T14:54:08;6.20;99.90
6538;DHT22;3302;52.508;13.454;2024-03-23T14:56:34;6.30;99.90
6538;DHT22;3302;52.508;13.454;2024-03-23T14:59:00;6.40;99.90
6538;DHT22;3302;52.508;13.454;2024-03-23T15:01:26;6.40;99.90
6538;DHT22;3302;52.508;13.454;2024-03-23T15:03:52;6.30;99.90
6538;DHT22;3302;52.508;13.454;2024-03-23T15:06:19;5.40;99.90
6538;DHT22;3302;52.508;13.454;2024-03-23T15:08:45;4.90;99.90
6538;DHT22;3302;52.508;13.454;2024-03-23T15:11:11;5.20;99.90
6538;DHT22;3302;52.508;13.454;2024-03-23T15:13:37;5.20;99.90
6538;DHT22;3302;52.508;13.454;2024-03-23T15:16:04;5.40;99.90
6538;DHT22;3302;52.508;13.454;2024-03-23T15:18:31;5.50;99.90
6538;DHT22;3302;52.508;13.454;2024-03-23T15:20:59;5.90;99.90
6538;DHT22;3302;52.508;13.454;2024-03-23T15:23:29;5.80;99.90
6538;DHT22;3302;52.508;13.454;2024-03-23T15:25:56;6.10;99.90
6538;DHT22;3302;52.508;13.454;2024-03-23T15:28:23;6.50;99.90
6538;DHT22;3302;52.508;13.454;2024-03-23T15:30:49;6.30;99.90
6538;DHT22;3302;52.508;13.454;2024-03-23T15:33:15;6.50;99.90
6538;DHT22;3302;52.508;13.454;2024-03-23T15:35:41;6.90;99.90
6538;DHT22;3302;52.508;13.454;2024-03-23T15:38:07;7.00;99.90
6538;DHT22;3302;52.508;13.454;2024-03-23T15:40:33;6.70;99.90
6538;DHT22;3302;52.508;13.454;2024-03-23T15:42:59;6.60;99.90
6538;DHT22;3302;52.508;13.454;2024-03-23T15:45:26;7.10;99.90
6538;DHT22;3302;52.508;13.454;2024-03-23T15:47:52;6.80;99.90
6538;DHT22;3302;52.508;13.454;2024-03-23T15:50:18;6.70;99.90
6538;DHT22;3302;52.508;13.454;2024-03-23T15:52:43;6.60;99.90
6538;DHT22;3302;52.508;13.454;2024-03-23T15:55:09;6.80;99.90
6538;DHT22;3302;52.508;13.454;2024-03-23T15:57:36;6.80;99.90
6538;DHT22;3302;52.508;13.454;2024-03-23T16:00:02;6.70;99.90
6538;DHT22;3302;52.508;13.454;2024-03-23T16:02:28;6.60;99.90
6538;DHT22;3302;52.508;13.454;2024-03-23T16:04:54;7.00;99.90
6538;DHT22;3302;52.508;13.454;2024-03-23T16:07:21;7.10;99.90
6538;DHT22;3302;52.508;13.454;2024-03-23T16:09:46;7.20;99.90
6538;DHT22;3302;52.508;13.454;2024-03-23T16:12:12;7.20;99.90
6538;DHT22;3302;52.508;13.454;2024-03-23T16:14:38;7.20;99.90
6538;DHT22;3302;52.508;13.454;2024-03-23T16:17:04;7.20;99.90
6538;DHT22;3302;52.508;13.454;2024-03-23T16:19:30;7.20;99.90
6538;DHT22;3302;52.508;13.454;2024-03-23T16:21:55;7.20;99.90
6538;DHT22;3302;52.508;13.454;2024-03-23T16:24:21;7.20;99.90
6538;DHT22;3302;52.508;13.454;2024-03-23T16:26:47;7.10;99.90
6538;DHT22;3302;52.508;13.454;2024-03-23T16:29:14;7.10;99.90
6538;DHT22;3302;52.508;13.454;2024-03-23T16:31:40;7.10;99.90
6538;DHT22;3302;52.508;13.454;2024-03-23T16:34:06;7.00;99.90
6538;DHT22;3302;52.508;13.454;2024-03-23T16:36:32;7.00;99.90
6538;DHT22;3302;52.508;13.454;2024-03-23T16:38:57;7.00;99.90
6538;DHT22;3302;52.508;13.454;2024-03-23T16:41:24;7.10;99.90
6538;DHT22;3302;52.508;13.454;2024-03-23T16:43:49;7.00;99.90
6538;DHT22;3302;52.508;13.454;2024-03-23T16:46:15;7.00;99.90
6538;DHT22;3302;52.508;13.454;2024-03-23T16:48:42;7.00;99.90
6538;DHT22;3302;52.508;13.454;2024-03-23T16:51:10;7.00;99.90
6538;DHT22;3302;52.508;13.454;2024-03-23T16:53:36;6.90;99.90
6538;DHT22;3302;52.508;13.454;2024-03-23T16:56:03;7.00;99.90
6538;DHT22;3302;52.508;13.454;2024-03-23T16:58:31;6.90;99.90
6538;DHT22;3302;52.508;13.454;2024-03-23T17:01:03;6.90;99.90
6538;DHT22;3302;52.508;13.454;2024-03-23T17:03:30;6.90;99.90
6538;DHT22;3302;52.508;13.454;2024-03-23T17:05:56;6.90;99.90
6538;DHT22;3302;52.508;13.454;2024-03-23T17:08:22;6.90;99.90
6538;DHT22;3302;52.508;13.454;2024-03-23T17:10:48;6.90;99.90
6538;DHT22;3302;52.508;13.454;2024-03-23T17:13:14;6.90;99.90
6538;DHT22;3302;52.508;13.454;2024-03-23T17:15:46;6.90;99.90
6538;DHT22;3302;52.508;13.454;2024-03-23T17:18:12;6.80;99.90